sensor_id;sensor_type;location;lat;lon;timestamp;noise_LAeq;noise_LA_min;noise_LA_max;noise_LA01;noise_LA95
46584;Laerm;32309;48.858;8.252;2024-03-08T00:01:25;40.62;37.52;43.90;;
46584;Laerm;32309;48.858;8.252;2024-03-08T00:03:25;40.13;37.52;42.71;;
46584;Laerm;32309;48.858;8.252;2024-03-08T00:05:27;40.10;37.70;42.16;;
46584;Laerm;32309;48.858;8.252;2024-03-08T00:09:27;40.21;37.52;43.44;;
46584;Laerm;32309;48.858;8.252;2024-03-08T00:11:28;39.93;37.32;42.29;;
46584;Laerm;32309;48.858;8.252;2024-03-08T00:13:28;40.27;37.52;43.72;;
46584;Laerm;32309;48.858;8.252;2024-03-08T00:15:28;40.05;37.32;43.19;;
46584;Laerm;32309;48.858;8.252;2024-03-08T00:17:29;40.26;37.52;42.71;;
46584;Laerm;32309;48.858;8.252;2024-03-08T00:19:31;40.34;38.05;43.90;;
46584;Laerm;32309;48.858;8.252;2024-03-08T00:21:34;40.00;37.32;42.76;;
46584;Laerm;32309;48.858;8.252;2024-03-08T00:23:35;39.85;37.52;43.14;;
46584;Laerm;32309;48.858;8.252;2024-03-08T00:25:35;40.26;37.88;44.62;;
46584;Laerm;32309;48.858;8.252;2024-03-08T00:27:36;39.61;36.69;42.29;;
46584;Laerm;32309;48.858;8.252;2024-03-08T00:29:37;40.09;37.32;42.79;;
46584;Laerm;32309;48.858;8.252;2024-03-08T00:31:38;39.93;37.32;42.03;;
46584;Laerm;32309;48.858;8.252;2024-03-08T00:33:39;39.70;36.91;41.61;;
46584;Laerm;32309;48.858;8.252;2024-03-08T00:35:40;39.94;37.32;42.22;;
46584;Laerm;32309;48.858;8.252;2024-03-08T00:37:40;40.36;38.05;43.51;;
46584;Laerm;32309;48.858;8.252;2024-03-08T00:39:41;40.40;37.88;42.98;;
46584;Laerm;32309;48.858;8.252;2024-03-08T00:41:42;40.02;37.52;43.29;;
46584;Laerm;32309;48.858;8.252;2024-03-08T00:45:47;39.57;37.12;41.53;;
46584;Laerm;32309;48.858;8.252;2024-03-08T00:47:47;39.71;37.12;42.35;;
46584;Laerm;32309;48.858;8.252;2024-03-08T00:49:48;39.96;37.32;43.77;;
46584;Laerm;32309;48.858;8.252;2024-03-08T00:51:48;40.05;37.52;42.16;;
46584;Laerm;32309;48.858;8.252;2024-03-08T00:53:48;39.98;37.52;42.16;;
46584;Laerm;32309;48.858;8.252;2024-03-08T00:55:49;40.27;37.70;43.09;;
46584;Laerm;32309;48.858;8.252;2024-03-08T00:57:49;39.60;36.69;42.65;;
46584;Laerm;32309;48.858;8.252;2024-03-08T01:01:49;40.04;37.88;42.35;;
46584;Laerm;32309;48.858;8.252;2024-03-08T01:03:50;39.95;37.12;42.03;;
46584;Laerm;32309;48.858;8.252;2024-03-08T01:05:50;39.92;36.91;42.09;;
46584;Laerm;32309;48.858;8.252;2024-03-08T01:07:50;40.07;37.70;42.29;;
46584;Laerm;32309;48.858;8.252;2024-03-08T01:09:51;39.86;37.32;41.89;;
46584;Laerm;32309;48.858;8.252;2024-03-08T01:13:54;40.27;37.88;42.65;;
46584;Laerm;32309;48.858;8.252;2024-03-08T01:15:54;40.26;37.52;42.41;;
46584;Laerm;32309;48.858;8.252;2024-03-08T01:17:55;40.10;37.12;43.04;;
46584;Laerm;32309;48.858;8.252;2024-03-08T01:19:55;39.98;37.70;42.29;;
46584;Laerm;32309;48.858;8.252;2024-03-08T01:21:55;40.12;37.52;44.11;;
46584;Laerm;32309;48.858;8.252;2024-03-08T01:23:56;39.99;37.88;42.79;;
46584;Laerm;32309;48.858;8.252;2024-03-08T01:25:57;40.18;37.70;42.76;;
46584;Laerm;32309;48.858;8.252;2024-03-08T01:27:57;39.95;37.32;42.71;;
46584;Laerm;32309;48.858;8.252;2024-03-08T01:29:58;40.15;36.91;45.04;;
46584;Laerm;32309;48.858;8.252;2024-03-08T01:31:59;39.93;36.69;42.71;;
46584;Laerm;32309;48.858;8.252;2024-03-08T01:34:01;39.87;37.12;42.09;;
46584;Laerm;32309;48.858;8.252;2024-03-08T01:36:02;39.89;37.52;42.16;;
46584;Laerm;32309;48.858;8.252;2024-03-08T01:38:02;39.90;37.32;46.05;;
46584;Laerm;32309;48.858;8.252;2024-03-08T01:40:05;40.12;37.52;42.93;;
46584;Laerm;32309;48.858;8.252;2024-03-08T01:42:07;39.99;37.52;42.24;;
46584;Laerm;32309;48.858;8.252;2024-03-08T01:44:07;40.18;37.32;44.31;;
46584;Laerm;32309;48.858;8.252;2024-03-08T01:46:10;40.08;37.52;42.65;;
46584;Laerm;32309;48.858;8.252;2024-03-08T01:48:13;39.72;36.91;42.22;;
46584;Laerm;32309;48.858;8.252;2024-03-08T01:50:15;39.89;37.52;42.16;;
46584;Laerm;32309;48.858;8.252;2024-03-08T01:52:16;40.03;37.12;42.76;;
46584;Laerm;32309;48.858;8.252;2024-03-08T01:54:19;39.80;37.52;42.09;;
46584;Laerm;32309;48.858;8.252;2024-03-08T01:56:20;39.68;37.12;41.96;;
46584;Laerm;32309;48.858;8.252;2024-03-08T01:58:21;39.93;37.52;42.22;;
46584;Laerm;32309;48.858;8.252;2024-03-08T02:00:22;39.75;37.32;41.61;;
46584;Laerm;32309;48.858;8.252;2024-03-08T02:02:24;39.96;37.52;42.98;;
46584;Laerm;32309;48.858;8.252;2024-03-08T02:06:25;40.29;37.88;43.14;;
46584;Laerm;32309;48.858;8.252;2024-03-08T02:08:25;39.99;37.32;42.47;;
46584;Laerm;32309;48.858;8.252;2024-03-08T02:10:26;39.85;36.91;42.47;;
46584;Laerm;32309;48.858;8.252;2024-03-08T02:12:26;40.86;38.05;43.49;;
46584;Laerm;32309;48.858;8.252;2024-03-08T02:14:27;40.56;37.52;47.50;;
46584;Laerm;32309;48.858;8.252;2024-03-08T02:16:27;40.05;36.69;42.09;;
46584;Laerm;32309;48.858;8.252;2024-03-08T02:18:29;40.46;38.05;43.39;;
46584;Laerm;32309;48.858;8.252;2024-03-08T02:20:29;41.15;38.52;45.39;;
46584;Laerm;32309;48.858;8.252;2024-03-08T02:22:30;40.55;37.32;45.14;;
46584;Laerm;32309;48.858;8.252;2024-03-08T02:26:34;41.58;38.05;45.45;;
46584;Laerm;32309;48.858;8.252;2024-03-08T02:28:36;41.07;37.70;44.94;;
46584;Laerm;32309;48.858;8.252;2024-03-08T02:30:39;41.42;38.05;44.87;;
46584;Laerm;32309;48.858;8.252;2024-03-08T02:32:39;41.27;37.88;44.47;;
46584;Laerm;32309;48.858;8.252;2024-03-08T02:34:39;40.92;38.21;44.39;;
46584;Laerm;32309;48.858;8.252;2024-03-08T02:38:40;41.14;38.37;43.86;;
46584;Laerm;32309;48.858;8.252;2024-03-08T02:40:43;40.72;38.02;43.29;;
46584;Laerm;32309;48.858;8.252;2024-03-08T02:42:44;41.03;37.70;43.63;;
46584;Laerm;32309;48.858;8.252;2024-03-08T02:44:44;41.23;38.52;46.02;;
46584;Laerm;32309;48.858;8.252;2024-03-08T02:46:44;41.34;38.81;44.07;;
46584;Laerm;32309;48.858;8.252;2024-03-08T02:48:48;41.06;37.88;44.73;;
46584;Laerm;32309;48.858;8.252;2024-03-08T02:50:48;40.95;38.21;43.81;;
46584;Laerm;32309;48.858;8.252;2024-03-08T02:52:51;41.28;38.21;45.04;;
46584;Laerm;32309;48.858;8.252;2024-03-08T02:54:51;41.35;38.37;45.23;;
46584;Laerm;32309;48.858;8.252;2024-03-08T02:56:51;41.84;38.21;46.73;;
46584;Laerm;32309;48.858;8.252;2024-03-08T02:58:56;40.99;38.21;43.86;;
46584;Laerm;32309;48.858;8.252;2024-03-08T03:00:56;41.26;38.67;44.90;;
46584;Laerm;32309;48.858;8.252;2024-03-08T03:02:57;40.55;37.88;42.98;;
46584;Laerm;32309;48.858;8.252;2024-03-08T03:04:57;41.19;38.52;43.39;;
46584;Laerm;32309;48.858;8.252;2024-03-08T03:06:58;41.03;38.81;45.14;;
46584;Laerm;32309;48.858;8.252;2024-03-08T03:08:58;41.20;38.67;43.77;;
46584;Laerm;32309;48.858;8.252;2024-03-08T03:10:59;41.54;39.34;44.87;;
46584;Laerm;32309;48.858;8.252;2024-03-08T03:12:59;42.44;39.46;45.77;;
46584;Laerm;32309;48.858;8.252;2024-03-08T03:14:59;41.49;38.21;44.03;;
46584;Laerm;32309;48.858;8.252;2024-03-08T03:17:00;41.17;38.37;45.14;;
46584;Laerm;32309;48.858;8.252;2024-03-08T03:19:00;41.92;38.81;45.66;;
46584;Laerm;32309;48.858;8.252;2024-03-08T03:21:02;41.72;39.34;43.58;;
46584;Laerm;32309;48.858;8.252;2024-03-08T03:23:07;41.58;38.67;44.27;;
46584;Laerm;32309;48.858;8.252;2024-03-08T03:25:09;41.36;38.05;43.94;;
46584;Laerm;32309;48.858;8.252;2024-03-08T03:27:09;42.30;39.46;44.76;;
46584;Laerm;32309;48.858;8.252;2024-03-08T03:29:12;42.25;39.92;45.42;;
46584;Laerm;32309;48.858;8.252;2024-03-08T03:31:13;41.71;38.67;44.35;;
46584;Laerm;32309;48.858;8.252;2024-03-08T03:33:14;41.76;39.08;46.29;;
46584;Laerm;32309;48.858;8.252;2024-03-08T03:35:20;42.71;40.33;53.22;;
46584;Laerm;32309;48.858;8.252;2024-03-08T03:37:21;42.59;40.18;51.56;;
46584;Laerm;32309;48.858;8.252;2024-03-08T03:39:22;41.56;38.81;45.30;;
46584;Laerm;32309;48.858;8.252;2024-03-08T03:41:22;41.99;39.70;47.12;;
46584;Laerm;32309;48.858;8.252;2024-03-08T03:43:23;41.77;39.34;45.63;;
46584;Laerm;32309;48.858;8.252;2024-03-08T03:45:24;41.32;37.88;44.62;;
46584;Laerm;32309;48.858;8.252;2024-03-08T03:47:24;41.71;39.08;46.02;;
46584;Laerm;32309;48.858;8.252;2024-03-08T03:49:24;41.91;39.08;46.73;;
46584;Laerm;32309;48.858;8.252;2024-03-08T03:51:25;41.84;39.46;47.61;;
46584;Laerm;32309;48.858;8.252;2024-03-08T03:53:26;41.93;38.95;49.25;;
46584;Laerm;32309;48.858;8.252;2024-03-08T03:55:27;42.09;39.34;49.56;;
46584;Laerm;32309;48.858;8.252;2024-03-08T03:57:28;42.25;39.70;50.22;;
46584;Laerm;32309;48.858;8.252;2024-03-08T03:59:29;42.36;40.18;44.92;;
46584;Laerm;32309;48.858;8.252;2024-03-08T04:01:29;42.32;40.03;47.12;;
46584;Laerm;32309;48.858;8.252;2024-03-08T04:03:30;42.09;39.70;45.63;;
46584;Laerm;32309;48.858;8.252;2024-03-08T04:05:30;42.10;39.58;51.95;;
46584;Laerm;32309;48.858;8.252;2024-03-08T04:07:31;42.57;39.58;58.11;;
46584;Laerm;32309;48.858;8.252;2024-03-08T04:09:31;42.06;39.34;46.48;;
46584;Laerm;32309;48.858;8.252;2024-03-08T04:11:32;42.39;39.81;45.66;;
46584;Laerm;32309;48.858;8.252;2024-03-08T04:13:32;42.77;40.33;46.30;;
46584;Laerm;32309;48.858;8.252;2024-03-08T04:15:32;42.76;40.63;45.94;;
46584;Laerm;32309;48.858;8.252;2024-03-08T04:17:34;42.58;39.58;45.72;;
46584;Laerm;32309;48.858;8.252;2024-03-08T04:19:38;42.78;40.43;46.50;;
46584;Laerm;32309;48.858;8.252;2024-03-08T04:21:39;42.85;40.33;49.77;;
46584;Laerm;32309;48.858;8.252;2024-03-08T04:23:39;42.74;40.53;50.10;;
46584;Laerm;32309;48.858;8.252;2024-03-08T04:27:44;42.56;40.53;45.17;;
46584;Laerm;32309;48.858;8.252;2024-03-08T04:29:44;42.87;40.98;45.45;;
46584;Laerm;32309;48.858;8.252;2024-03-08T04:31:44;42.46;40.33;44.97;;
46584;Laerm;32309;48.858;8.252;2024-03-08T04:33:45;42.42;39.46;45.39;;
46584;Laerm;32309;48.858;8.252;2024-03-08T04:35:45;42.73;40.53;45.69;;
46584;Laerm;32309;48.858;8.252;2024-03-08T04:37:46;42.49;40.33;45.94;;
46584;Laerm;32309;48.858;8.252;2024-03-08T04:39:46;42.57;40.23;44.94;;
46584;Laerm;32309;48.858;8.252;2024-03-08T04:41:47;42.18;39.70;48.88;;
46584;Laerm;32309;48.858;8.252;2024-03-08T04:43:47;43.60;40.53;61.14;;
46584;Laerm;32309;48.858;8.252;2024-03-08T04:45:47;42.57;40.71;48.84;;
46584;Laerm;32309;48.858;8.252;2024-03-08T04:47:48;42.22;39.92;44.83;;
46584;Laerm;32309;48.858;8.252;2024-03-08T04:49:48;42.08;39.92;44.27;;
46584;Laerm;32309;48.858;8.252;2024-03-08T04:51:50;42.73;40.03;47.96;;
46584;Laerm;32309;48.858;8.252;2024-03-08T04:55:50;42.51;40.62;44.58;;
46584;Laerm;32309;48.858;8.252;2024-03-08T05:01:51;42.39;39.92;45.20;;
46584;Laerm;32309;48.858;8.252;2024-03-08T05:03:51;42.97;40.43;53.77;;
46584;Laerm;32309;48.858;8.252;2024-03-08T05:05:55;42.35;39.92;45.17;;
46584;Laerm;32309;48.858;8.252;2024-03-08T05:09:56;42.42;40.62;44.47;;
46584;Laerm;32309;48.858;8.252;2024-03-08T05:11:57;42.57;40.13;44.39;;
46584;Laerm;32309;48.858;8.252;2024-03-08T05:13:59;42.75;40.13;47.77;;
46584;Laerm;32309;48.858;8.252;2024-03-08T05:16:03;42.87;40.80;45.23;;
46584;Laerm;32309;48.858;8.252;2024-03-08T05:18:03;43.15;40.71;52.87;;
46584;Laerm;32309;48.858;8.252;2024-03-08T05:20:04;42.90;40.71;48.85;;
46584;Laerm;32309;48.858;8.252;2024-03-08T05:22:10;42.74;40.71;45.11;;
46584;Laerm;32309;48.858;8.252;2024-03-08T05:24:11;42.56;40.43;45.14;;
46584;Laerm;32309;48.858;8.252;2024-03-08T05:26:11;42.69;40.80;45.72;;
46584;Laerm;32309;48.858;8.252;2024-03-08T05:28:12;42.81;40.43;44.94;;
46584;Laerm;32309;48.858;8.252;2024-03-08T05:30:13;42.69;40.43;44.80;;
46584;Laerm;32309;48.858;8.252;2024-03-08T05:32:17;42.96;40.98;45.48;;
46584;Laerm;32309;48.858;8.252;2024-03-08T05:34:18;43.03;41.06;45.30;;
46584;Laerm;32309;48.858;8.252;2024-03-08T05:36:19;42.97;41.14;44.80;;
46584;Laerm;32309;48.858;8.252;2024-03-08T05:38:19;42.55;40.89;44.23;;
46584;Laerm;32309;48.858;8.252;2024-03-08T05:40:21;42.65;40.62;44.83;;
46584;Laerm;32309;48.858;8.252;2024-03-08T05:42:23;42.78;40.98;44.31;;
46584;Laerm;32309;48.858;8.252;2024-03-08T05:44:24;42.63;40.71;44.73;;
46584;Laerm;32309;48.858;8.252;2024-03-08T05:46:24;42.55;40.13;44.51;;
46584;Laerm;32309;48.858;8.252;2024-03-08T05:48:24;42.57;40.33;44.80;;
46584;Laerm;32309;48.858;8.252;2024-03-08T05:50:25;42.75;40.53;50.12;;
46584;Laerm;32309;48.858;8.252;2024-03-08T05:52:25;42.65;40.33;51.01;;
46584;Laerm;32309;48.858;8.252;2024-03-08T05:54:26;43.24;40.89;45.83;;
46584;Laerm;32309;48.858;8.252;2024-03-08T05:56:29;43.03;41.22;51.08;;
46584;Laerm;32309;48.858;8.252;2024-03-08T05:58:30;43.04;40.71;48.96;;
46584;Laerm;32309;48.858;8.252;2024-03-08T06:00:31;43.46;41.22;51.16;;
46584;Laerm;32309;48.858;8.252;2024-03-08T06:02:31;42.70;40.80;57.93;;
46584;Laerm;32309;48.858;8.252;2024-03-08T06:04:32;43.69;41.14;59.81;;
46584;Laerm;32309;48.858;8.252;2024-03-08T06:08:32;43.03;40.89;53.37;;
46584;Laerm;32309;48.858;8.252;2024-03-08T06:10:33;43.20;41.46;53.69;;
46584;Laerm;32309;48.858;8.252;2024-03-08T06:12:33;43.35;41.46;55.39;;
46584;Laerm;32309;48.858;8.252;2024-03-08T06:14:40;43.11;41.06;53.21;;
46584;Laerm;32309;48.858;8.252;2024-03-08T06:16:40;42.58;40.71;50.86;;
46584;Laerm;32309;48.858;8.252;2024-03-08T06:18:40;42.43;40.23;44.23;;
46584;Laerm;32309;48.858;8.252;2024-03-08T06:20:41;42.88;40.89;50.30;;
46584;Laerm;32309;48.858;8.252;2024-03-08T06:22:43;42.64;40.33;50.29;;
46584;Laerm;32309;48.858;8.252;2024-03-08T06:24:48;43.21;40.71;54.86;;
46584;Laerm;32309;48.858;8.252;2024-03-08T06:26:48;42.74;40.71;49.00;;
46584;Laerm;32309;48.858;8.252;2024-03-08T06:30:49;42.75;40.43;45.80;;
46584;Laerm;32309;48.858;8.252;2024-03-08T06:32:51;43.21;41.06;52.08;;
46584;Laerm;32309;48.858;8.252;2024-03-08T06:34:51;43.04;40.62;53.39;;
46584;Laerm;32309;48.858;8.252;2024-03-08T06:36:51;44.19;40.98;65.38;;
46584;Laerm;32309;48.858;8.252;2024-03-08T06:38:52;43.88;40.33;56.12;;
46584;Laerm;32309;48.858;8.252;2024-03-08T06:40:53;42.76;40.43;50.89;;
46584;Laerm;32309;48.858;8.252;2024-03-08T06:42:54;43.25;39.81;55.25;;
46584;Laerm;32309;48.858;8.252;2024-03-08T06:44:55;42.59;40.03;49.33;;
46584;Laerm;32309;48.858;8.252;2024-03-08T06:47:00;42.32;40.13;51.47;;
46584;Laerm;32309;48.858;8.252;2024-03-08T06:49:00;42.61;39.58;53.81;;
46584;Laerm;32309;48.858;8.252;2024-03-08T06:51:03;42.85;40.53;56.93;;
46584;Laerm;32309;48.858;8.252;2024-03-08T06:53:04;42.31;40.23;44.19;;
46584;Laerm;32309;48.858;8.252;2024-03-08T06:55:05;41.67;39.81;43.63;;
46584;Laerm;32309;48.858;8.252;2024-03-08T06:57:05;42.30;40.13;44.62;;
46584;Laerm;32309;48.858;8.252;2024-03-08T06:59:09;42.05;39.92;43.81;;
46584;Laerm;32309;48.858;8.252;2024-03-08T07:01:10;42.31;40.13;44.39;;
46584;Laerm;32309;48.858;8.252;2024-03-08T07:03:13;42.03;39.92;44.03;;
46584;Laerm;32309;48.858;8.252;2024-03-08T07:05:17;42.06;39.92;50.59;;
46584;Laerm;32309;48.858;8.252;2024-03-08T07:07:18;42.20;39.58;57.03;;
46584;Laerm;32309;48.858;8.252;2024-03-08T07:09:20;42.49;39.58;57.15;;
46584;Laerm;32309;48.858;8.252;2024-03-08T07:11:20;43.09;40.62;53.76;;
46584;Laerm;32309;48.858;8.252;2024-03-08T07:13:21;43.05;39.34;65.78;;
46584;Laerm;32309;48.858;8.252;2024-03-08T07:15:22;43.05;39.34;65.78;;
46584;Laerm;32309;48.858;8.252;2024-03-08T07:17:23;42.57;40.03;46.84;;
46584;Laerm;32309;48.858;8.252;2024-03-08T07:19:27;42.59;40.03;50.58;;
46584;Laerm;32309;48.858;8.252;2024-03-08T07:21:27;42.11;39.81;44.11;;
46584;Laerm;32309;48.858;8.252;2024-03-08T07:26:02;42.35;40.13;52.23;;
46584;Laerm;32309;48.858;8.252;2024-03-08T07:28:05;42.99;39.92;54.65;;
46584;Laerm;32309;48.858;8.252;2024-03-08T07:30:06;42.35;39.70;45.07;;
46584;Laerm;32309;48.858;8.252;2024-03-08T07:32:10;42.55;40.08;44.58;;
46584;Laerm;32309;48.858;8.252;2024-03-08T07:34:21;42.52;39.70;45.66;;
46584;Laerm;32309;48.858;8.252;2024-03-08T07:36:21;42.20;39.81;56.87;;
46584;Laerm;32309;48.858;8.252;2024-03-08T07:38:22;42.46;40.23;51.13;;
46584;Laerm;32309;48.858;8.252;2024-03-08T07:40:25;41.94;39.58;48.61;;
46584;Laerm;32309;48.858;8.252;2024-03-08T07:42:26;42.10;39.34;49.26;;
46584;Laerm;32309;48.858;8.252;2024-03-08T07:44:29;41.89;39.70;49.27;;
46584;Laerm;32309;48.858;8.252;2024-03-08T07:46:31;42.48;39.08;57.28;;
46584;Laerm;32309;48.858;8.252;2024-03-08T07:48:31;42.47;39.58;53.14;;
46584;Laerm;32309;48.858;8.252;2024-03-08T07:50:31;42.25;39.92;47.65;;
46584;Laerm;32309;48.858;8.252;2024-03-08T07:52:36;43.10;39.46;55.18;;
46584;Laerm;32309;48.858;8.252;2024-03-08T07:54:36;41.63;39.08;43.99;;
46584;Laerm;32309;48.858;8.252;2024-03-08T07:56:40;42.05;39.58;44.27;;
46584;Laerm;32309;48.858;8.252;2024-03-08T07:58:40;41.70;37.70;45.54;;
46584;Laerm;32309;48.858;8.252;2024-03-08T08:00:43;42.76;39.11;51.06;;
46584;Laerm;32309;48.858;8.252;2024-03-08T08:02:44;41.86;39.46;50.34;;
46584;Laerm;32309;48.858;8.252;2024-03-08T08:06:46;41.84;39.21;44.27;;
46584;Laerm;32309;48.858;8.252;2024-03-08T08:08:46;41.75;39.08;50.42;;
46584;Laerm;32309;48.858;8.252;2024-03-08T08:10:47;42.02;38.81;50.97;;
46584;Laerm;32309;48.858;8.252;2024-03-08T08:12:48;41.89;39.34;48.52;;
46584;Laerm;32309;48.858;8.252;2024-03-08T08:14:48;41.91;39.58;45.62;;
46584;Laerm;32309;48.858;8.252;2024-03-08T08:16:49;41.36;38.67;46.84;;
46584;Laerm;32309;48.858;8.252;2024-03-08T08:18:52;41.71;39.35;44.43;;
46584;Laerm;32309;48.858;8.252;2024-03-08T08:20:52;41.64;38.81;45.11;;
46584;Laerm;32309;48.858;8.252;2024-03-08T08:24:55;41.28;39.08;44.43;;
46584;Laerm;32309;48.858;8.252;2024-03-08T08:26:56;41.52;39.21;44.03;;
46584;Laerm;32309;48.858;8.252;2024-03-08T08:28:56;41.24;39.08;43.94;;
46584;Laerm;32309;48.858;8.252;2024-03-08T08:30:56;41.45;39.34;44.66;;
46584;Laerm;32309;48.858;8.252;2024-03-08T08:32:57;41.73;39.46;45.51;;
46584;Laerm;32309;48.858;8.252;2024-03-08T08:35:01;42.49;38.52;45.60;;
46584;Laerm;32309;48.858;8.252;2024-03-08T08:37:02;41.45;38.52;43.94;;
46584;Laerm;32309;48.858;8.252;2024-03-08T08:39:02;41.27;38.67;45.83;;
46584;Laerm;32309;48.858;8.252;2024-03-08T08:41:03;40.78;38.52;43.14;;
46584;Laerm;32309;48.858;8.252;2024-03-08T08:43:04;42.23;38.05;65.21;;
46584;Laerm;32309;48.858;8.252;2024-03-08T08:45:08;40.91;38.05;57.10;;
46584;Laerm;32309;48.858;8.252;2024-03-08T08:49:09;40.98;38.67;43.90;;
46584;Laerm;32309;48.858;8.252;2024-03-08T08:51:11;41.04;39.08;44.62;;
46584;Laerm;32309;48.858;8.252;2024-03-08T08:53:15;42.55;38.81;48.77;;
46584;Laerm;32309;48.858;8.252;2024-03-08T08:55:17;41.03;38.37;45.23;;
46584;Laerm;32309;48.858;8.252;2024-03-08T08:57:20;40.66;37.88;42.98;;
46584;Laerm;32309;48.858;8.252;2024-03-08T08:59:21;40.79;38.05;43.90;;
46584;Laerm;32309;48.858;8.252;2024-03-08T09:01:23;40.48;38.21;42.98;;
46584;Laerm;32309;48.858;8.252;2024-03-08T09:03:23;40.74;38.37;49.40;;
46584;Laerm;32309;48.858;8.252;2024-03-08T09:05:25;40.77;34.69;43.29;;
46584;Laerm;32309;48.858;8.252;2024-03-08T09:07:26;40.42;38.05;42.71;;
46584;Laerm;32309;48.858;8.252;2024-03-08T09:09:34;41.28;38.52;47.30;;
46584;Laerm;32309;48.858;8.252;2024-03-08T09:11:35;41.24;39.08;43.44;;
46584;Laerm;32309;48.858;8.252;2024-03-08T09:13:35;41.21;38.95;43.34;;
46584;Laerm;32309;48.858;8.252;2024-03-08T09:17:37;42.13;40.27;50.59;;
46584;Laerm;32309;48.858;8.252;2024-03-08T09:19:39;41.79;39.46;45.01;;
46584;Laerm;32309;48.858;8.252;2024-03-08T09:21:40;42.24;39.58;52.65;;
46584;Laerm;32309;48.858;8.252;2024-03-08T09:23:40;43.89;40.13;54.97;;
46584;Laerm;32309;48.858;8.252;2024-03-08T09:29:42;41.69;39.08;58.57;;
46584;Laerm;32309;48.858;8.252;2024-03-08T09:31:46;41.68;38.95;59.74;;
46584;Laerm;32309;48.858;8.252;2024-03-08T09:33:47;41.46;39.34;49.08;;
46584;Laerm;32309;48.858;8.252;2024-03-08T09:35:47;41.40;38.95;46.92;;
46584;Laerm;32309;48.858;8.252;2024-03-08T09:37:48;41.18;38.81;45.72;;
46584;Laerm;32309;48.858;8.252;2024-03-08T09:39:51;41.78;38.67;53.78;;
46584;Laerm;32309;48.858;8.252;2024-03-08T09:43:52;41.23;39.21;43.94;;
46584;Laerm;32309;48.858;8.252;2024-03-08T09:45:53;41.65;38.81;45.60;;
46584;Laerm;32309;48.858;8.252;2024-03-08T09:47:55;41.22;38.74;44.39;;
46584;Laerm;32309;48.858;8.252;2024-03-08T09:49:55;40.97;38.52;43.90;;
46584;Laerm;32309;48.858;8.252;2024-03-08T09:51:56;40.94;38.52;43.86;;
46584;Laerm;32309;48.858;8.252;2024-03-08T09:53:56;40.94;38.52;43.86;;
46584;Laerm;32309;48.858;8.252;2024-03-08T09:56:00;40.98;38.37;43.09;;
46584;Laerm;32309;48.858;8.252;2024-03-08T09:58:05;40.99;38.21;48.58;;
46584;Laerm;32309;48.858;8.252;2024-03-08T10:00:25;40.69;38.05;49.52;;
46584;Laerm;32309;48.858;8.252;2024-03-08T10:02:25;40.74;38.37;44.23;;
46584;Laerm;32309;48.858;8.252;2024-03-08T10:04:25;40.77;37.88;44.35;;
46584;Laerm;32309;48.858;8.252;2024-03-08T10:06:28;41.20;38.05;45.57;;
46584;Laerm;32309;48.858;8.252;2024-03-08T10:08:29;41.40;38.95;44.97;;
46584;Laerm;32309;48.858;8.252;2024-03-08T10:10:29;41.66;38.95;45.57;;
46584;Laerm;32309;48.858;8.252;2024-03-08T10:14:34;41.49;38.37;48.73;;
46584;Laerm;32309;48.858;8.252;2024-03-08T10:16:38;40.86;38.37;42.88;;
46584;Laerm;32309;48.858;8.252;2024-03-08T10:18:39;41.32;39.08;43.39;;
46584;Laerm;32309;48.858;8.252;2024-03-08T10:22:42;41.96;39.92;43.90;;
46584;Laerm;32309;48.858;8.252;2024-03-08T10:24:46;42.26;40.13;45.17;;
46584;Laerm;32309;48.858;8.252;2024-03-08T10:26:46;42.17;39.81;46.25;;
46584;Laerm;32309;48.858;8.252;2024-03-08T10:30:48;42.42;40.23;45.11;;
46584;Laerm;32309;48.858;8.252;2024-03-08T10:32:49;42.62;40.43;45.07;;
46584;Laerm;32309;48.858;8.252;2024-03-08T10:34:49;42.56;40.13;44.90;;
46584;Laerm;32309;48.858;8.252;2024-03-08T10:36:51;42.16;40.23;44.31;;
46584;Laerm;32309;48.858;8.252;2024-03-08T10:38:52;42.51;40.53;46.35;;
46584;Laerm;32309;48.858;8.252;2024-03-08T10:40:53;42.48;40.03;44.62;;
46584;Laerm;32309;48.858;8.252;2024-03-08T10:42:57;43.02;40.89;46.33;;
46584;Laerm;32309;48.858;8.252;2024-03-08T10:45:05;44.62;40.53;56.50;;
46584;Laerm;32309;48.858;8.252;2024-03-08T10:47:18;42.72;40.71;46.43;;
46584;Laerm;32309;48.858;8.252;2024-03-08T10:49:25;43.48;40.80;51.12;;
46584;Laerm;32309;48.858;8.252;2024-03-08T10:51:36;43.17;40.80;47.36;;
46584;Laerm;32309;48.858;8.252;2024-03-08T10:53:42;42.89;40.98;45.04;;
46584;Laerm;32309;48.858;8.252;2024-03-08T10:55:45;43.01;40.98;46.82;;
46584;Laerm;32309;48.858;8.252;2024-03-08T10:59:49;42.63;40.53;57.65;;
46584;Laerm;32309;48.858;8.252;2024-03-08T11:01:49;42.71;40.80;45.42;;
46584;Laerm;32309;48.858;8.252;2024-03-08T11:05:53;42.31;40.23;56.93;;
46584;Laerm;32309;48.858;8.252;2024-03-08T11:07:53;41.76;39.08;44.19;;
46584;Laerm;32309;48.858;8.252;2024-03-08T11:09:53;42.22;39.92;44.62;;
46584;Laerm;32309;48.858;8.252;2024-03-08T11:14:45;43.13;40.43;46.25;;
46584;Laerm;32309;48.858;8.252;2024-03-08T11:16:57;45.11;40.98;59.05;;
46584;Laerm;32309;48.858;8.252;2024-03-08T11:19:22;42.38;40.33;50.88;;
46584;Laerm;32309;48.858;8.252;2024-03-08T11:21:25;42.65;39.92;47.02;;
46584;Laerm;32309;48.858;8.252;2024-03-08T11:23:27;43.15;40.71;47.38;;
46584;Laerm;32309;48.858;8.252;2024-03-08T11:27:53;42.56;40.33;47.57;;
46584;Laerm;32309;48.858;8.252;2024-03-08T11:30:07;42.78;40.33;46.91;;
46584;Laerm;32309;48.858;8.252;2024-03-08T11:32:14;42.62;40.33;47.70;;
46584;Laerm;32309;48.858;8.252;2024-03-08T11:34:15;42.55;40.33;52.25;;
46584;Laerm;32309;48.858;8.252;2024-03-08T11:36:21;42.16;39.92;48.51;;
46584;Laerm;32309;48.858;8.252;2024-03-08T11:40:50;42.27;40.23;49.83;;
46584;Laerm;32309;48.858;8.252;2024-03-08T11:42:50;43.00;40.45;58.04;;
46584;Laerm;32309;48.858;8.252;2024-03-08T11:47:09;44.12;40.98;52.48;;
46584;Laerm;32309;48.858;8.252;2024-03-08T11:49:10;43.09;40.53;56.30;;
46584;Laerm;32309;48.858;8.252;2024-03-08T11:51:12;42.80;40.62;47.84;;
46584;Laerm;32309;48.858;8.252;2024-03-08T11:53:32;42.39;39.81;45.42;;
46584;Laerm;32309;48.858;8.252;2024-03-08T11:55:33;42.31;40.03;45.63;;
46584;Laerm;32309;48.858;8.252;2024-03-08T11:57:36;42.41;40.23;45.17;;
46584;Laerm;32309;48.858;8.252;2024-03-08T12:01:36;42.42;40.33;47.28;;
46584;Laerm;32309;48.858;8.252;2024-03-08T12:03:36;42.52;39.92;49.72;;
46584;Laerm;32309;48.858;8.252;2024-03-08T12:05:38;42.82;40.80;52.01;;
46584;Laerm;32309;48.858;8.252;2024-03-08T12:07:38;42.81;40.71;53.86;;
46584;Laerm;32309;48.858;8.252;2024-03-08T12:09:40;42.98;40.53;51.39;;
46584;Laerm;32309;48.858;8.252;2024-03-08T12:11:42;42.73;40.71;45.57;;
46584;Laerm;32309;48.858;8.252;2024-03-08T12:13:44;43.02;40.89;45.80;;
46584;Laerm;32309;48.858;8.252;2024-03-08T12:15:46;42.67;40.43;48.48;;
46584;Laerm;32309;48.858;8.252;2024-03-08T12:17:52;42.99;40.43;58.87;;
46584;Laerm;32309;48.858;8.252;2024-03-08T12:20:40;42.82;40.23;48.32;;
46584;Laerm;32309;48.858;8.252;2024-03-08T12:24:44;42.69;40.62;45.39;;
46584;Laerm;32309;48.858;8.252;2024-03-08T12:28:48;42.27;40.13;53.64;;
46584;Laerm;32309;48.858;8.252;2024-03-08T12:30:50;42.47;40.33;45.17;;
46584;Laerm;32309;48.858;8.252;2024-03-08T12:32:59;42.62;40.33;48.84;;